Data for 12/31/2015

Time Sea-Level Adjusted Pressure Absolute Pressure Temperature Relative Humidity Dew Point   
(mb) (inHg) (mb) (inHg) (C) (F) (%) (C) (F)
00:05 1025 30.27 854 25.22 -9.2 15.4 86 -11.2 11.9
00:10 1025 30.27 854 25.22 -9.3 15.3 86 -11.2 11.8
00:15 1025 30.27 854 25.22 -9.3 15.2 86 -11.2 11.9
00:20 1025 30.27 855 25.25 -9.3 15.3 86 -11.2 11.9
00:25 1025 30.27 855 25.25 -9.3 15.2 86 -11.2 11.9
00:30 1025 30.27 855 25.25 -9.3 15.2 87 -11.1 11.9
00:35 1025 30.27 855 25.25 -9.4 15.2 87 -11.1 12.1
00:40 1025 30.27 855 25.25 -9.3 15.2 88 -11 12.1
00:45 1026 30.3 855 25.25 -9.4 15.1 87 -11.1 12
00:50 1026 30.3 855 25.25 -9.4 15 88 -11.1 11.9
00:55 1026 30.3 855 25.25 -9.4 15.1 88 -11.1 12
01:00 1026 30.3 855 25.25 -9.4 15.1 88 -11 12.1
01:05 1026 30.3 855 25.25 -9.4 15.1 88 -11 12.2
01:10 1026 30.3 855 25.25 -9.3 15.2 88 -11 12.2
01:15 1026 30.3 855 25.25 -9.3 15.2 88 -11 12.1
01:20 1026 30.3 855 25.25 -9.4 15.1 88 -11.1 12
01:25 1026 30.3 855 25.25 -9.4 15.1 87 -11.1 11.9
01:30 1026 30.3 855 25.25 -9.3 15.2 87 -11.1 12
01:35 1026 30.3 855 25.25 -9.4 15.2 87 -11.1 11.9
01:40 1026 30.3 855 25.25 -9.4 15 87 -11.2 11.8
01:45 1026 30.3 855 25.25 -9.4 15.1 87 -11.2 11.8
01:50 1026 30.3 855 25.25 -9.4 15.1 87 -11.2 11.8
01:55 1026 30.3 855 25.25 -9.4 15.1 87 -11.3 11.7
02:00 1026 30.3 855 25.25 -9.4 15 86 -11.4 11.6
02:05 1026 30.3 855 25.25 -9.4 15 86 -11.3 11.6
02:10 1026 30.3 855 25.25 -9.5 14.9 86 -11.4 11.4
02:15 1026 30.3 855 25.25 -9.5 14.8 86 -11.4 11.4
02:20 1025 30.27 855 25.25 -9.6 14.7 87 -11.4 11.4
02:25 1025 30.27 855 25.25 -9.9 14.2 87 -11.7 10.9
02:30 1026 30.3 855 25.25 -9.8 14.3 86 -11.7 11
02:35 1026 30.3 855 25.25 -9.6 14.7 84 -11.8 10.8
02:40 1026 30.3 855 25.25 -9.2 15.4 82 -11.7 10.9
02:45 1026 30.3 855 25.25 -9.3 15.3 85 -11.3 11.6
02:50 1026 30.3 855 25.25 -9.5 15 85 -11.5 11.3
02:55 1026 30.3 855 25.25 -9.7 14.6 86 -11.5 11.2
03:00 1026 30.3 855 25.25 -9.6 14.6 85 -11.7 10.9
03:05 1026 30.3 856 25.28 -9.3 15.2 82 -11.8 10.8
03:10 1026 30.3 856 25.28 -9.1 15.6 82 -11.7 11
03:15 1026 30.3 856 25.28 -8.9 16.1 81 -11.6 11.1
03:20 1026 30.3 856 25.28 -8.8 16.2 80 -11.6 11.1
03:25 1026 30.3 856 25.28 -8.7 16.3 79 -11.7 11
03:30 1026 30.3 856 25.28 -8.7 16.3 79 -11.7 10.9
03:35 1027 30.33 856 25.28 -8.7 16.3 78 -11.8 10.7
03:40 1027 30.33 856 25.28 -8.8 16.2 79 -11.9 10.7
03:45 1027 30.33 856 25.28 -8.8 16.2 79 -11.8 10.8
03:50 1027 30.33 856 25.28 -8.8 16.2 79 -11.7 10.9
03:55 1027 30.33 856 25.28 -8.8 16.1 80 -11.7 10.9
04:00 1027 30.33 856 25.28 -8.9 15.9 80 -11.7 10.9
04:05 1027 30.33 856 25.28 -9.3 15.2 82 -11.8 10.8
04:10 1027 30.33 856 25.28 -9.4 15.1 82 -12 10.5
04:15 1027 30.33 856 25.28 -9.4 15.1 81 -12 10.4
04:20 1027 30.33 856 25.28 -9.3 15.3 81 -12 10.5
04:25 1027 30.33 856 25.28 -9.3 15.3 80 -12.1 10.2
04:30 1027 30.33 856 25.28 -9.2 15.4 79 -12.2 10.1
04:35 1027 30.33 856 25.28 -9.2 15.5 78 -12.3 9.8
04:40 1027 30.33 856 25.28 -9.3 15.4 78 -12.4 9.7
04:45 1027 30.33 856 25.28 -9.3 15.4 78 -12.5 9.6
04:50 1027 30.33 856 25.28 -9.3 15.3 77 -12.6 9.3
04:55 1027 30.33 856 25.28 -9.3 15.3 77 -12.7 9.2
05:00 1027 30.33 856 25.28 -9.3 15.4 77 -12.5 9.5
05:05 1027 30.33 856 25.28 -9.1 15.7 76 -12.5 9.5
05:10 1027 30.33 856 25.28 -8.9 15.9 76 -12.4 9.6
05:15 1027 30.33 856 25.28 -8.8 16.1 75 -12.5 9.5
05:20 1027 30.33 856 25.28 -8.8 16.2 75 -12.4 9.6
05:25 1027 30.33 856 25.28 -8.7 16.3 75 -12.4 9.7
05:30 1027 30.33 856 25.28 -8.7 16.4 74 -12.6 9.4
05:35 1027 30.33 856 25.28 -8.7 16.4 73 -12.6 9.3
05:40 1027 30.33 856 25.28 -8.7 16.4 74 -12.5 9.5
05:45 1027 30.33 857 25.31 -8.7 16.4 74 -12.4 9.6
05:50 1027 30.33 856 25.28 -8.7 16.4 75 -12.3 9.8
05:55 1027 30.33 856 25.28 -9 15.9 77 -12.3 9.8
06:00 1027 30.33 857 25.31 -9.2 15.5 76 -12.6 9.2
06:05 1027 30.33 857 25.31 -9.3 15.3 77 -12.7 9.2
06:10 1028 30.36 857 25.31 -9.2 15.4 75 -12.9 8.8
06:15 1028 30.36 857 25.31 -9.2 15.4 74 -13 8.6
06:20 1028 30.36 857 25.31 -9.2 15.5 74 -13 8.5
06:25 1028 30.36 857 25.31 -9.2 15.5 73 -13.1 8.3
06:30 1028 30.36 857 25.31 -9.1 15.7 73 -13.1 8.5
06:35 1028 30.36 857 25.31 -9 15.8 72 -13.2 8.3
06:40 1028 30.36 857 25.31 -9 15.9 70 -13.4 7.8
06:45 1028 30.36 857 25.31 -8.9 15.9 71 -13.3 8.1
06:50 1028 30.36 857 25.31 -8.9 15.9 72 -13.1 8.4
06:55 1028 30.36 857 25.31 -9.3 15.3 72 -13.4 7.9
07:00 1028 30.36 857 25.31 -9.4 15.1 73 -13.4 7.9
07:05 1028 30.36 857 25.31 -9.3 15.3 72 -13.4 7.9
07:10 1028 30.36 857 25.31 -9.2 15.5 73 -13.1 8.3
07:15 1028 30.36 857 25.31 -9.2 15.5 72 -13.4 7.9
07:20 1028 30.36 858 25.34 -9.1 15.7 71 -13.4 7.9
07:25 1028 30.36 858 25.34 -9.2 15.5 73 -13.2 8.2
07:30 1028 30.36 858 25.34 -9.1 15.6 71 -13.5 7.7
07:35 1029 30.39 858 25.34 -9 15.9 69 -13.6 7.5
07:40 1029 30.39 858 25.34 -8.9 16 68 -13.7 7.3
07:45 1029 30.39 858 25.34 -8.8 16.1 68 -13.7 7.4
07:50 1029 30.39 858 25.34 -8.8 16.2 69 -13.5 7.7
07:55 1029 30.39 858 25.34 -8.7 16.3 69 -13.5 7.7
08:00 1029 30.39 858 25.34 -8.7 16.3 68 -13.6 7.5
08:05 1029 30.39 858 25.34 -8.7 16.4 69 -13.4 7.9
08:10 1029 30.39 858 25.34 -8.6 16.6 67 -13.7 7.4
08:15 1029 30.39 858 25.34 -8.5 16.7 68 -13.5 7.8
08:20 1029 30.39 858 25.34 -8.6 16.6 66 -13.8 7.1
08:25 1029 30.39 858 25.34 -8.6 16.6 67 -13.6 7.5
08:30 1029 30.39 858 25.34 -8.6 16.6 68 -13.5 7.7
08:35 1029 30.39 858 25.34 -8.5 16.7 67 -13.6 7.6
08:40 1029 30.39 858 25.34 -8.5 16.8 68 -13.3 8
08:45 1029 30.39 858 25.34 -8.4 16.8 67 -13.4 7.8
08:50 1029 30.39 858 25.34 -8.4 16.9 66 -13.6 7.6
08:55 1029 30.39 858 25.34 -8.3 17.1 66 -13.5 7.6
09:00 1029 30.39 858 25.34 -8.2 17.2 67 -13.4 7.9
09:05 1029 30.39 858 25.34 -8.2 17.3 67 -13.3 8
09:10 1029 30.39 858 25.34 -8.2 17.3 67 -13.4 8
09:15 1029 30.39 858 25.34 -8.2 17.2 70 -12.7 9.1
09:20 1029 30.39 858 25.34 -8.7 16.4 72 -12.8 9
09:25 1029 30.39 858 25.34 -8.9 16 72 -13 8.6
09:30 1029 30.39 859 25.37 -8.8 16.2 71 -13.1 8.4
09:35 1029 30.39 859 25.37 -8.6 16.5 70 -13.1 8.4
09:40 1029 30.39 859 25.37 -8.6 16.6 73 -12.7 9.2
09:45 1029 30.39 859 25.37 -8.4 16.8 74 -12.3 9.9
09:50 1029 30.39 859 25.37 -8.4 16.9 74 -12.3 9.9
09:55 1030 30.42 859 25.37 -8.5 16.7 75 -12.2 10.1
10:00 1030 30.42 859 25.37 -8.5 16.8 76 -12.1 10.3
10:05 1030 30.42 859 25.37 -8.3 17 75 -12 10.4
10:10 1030 30.42 859 25.37 -8.2 17.3 73 -12.1 10.2
10:15 1030 30.42 859 25.37 -8 17.6 71 -12.4 9.8
10:20 1030 30.42 859 25.37 -7.9 17.9 70 -12.4 9.7
10:25 1030 30.42 859 25.37 -7.8 18 68 -12.6 9.3
10:30 1030 30.42 859 25.37 -7.7 18.2 68 -12.6 9.4
10:35 1030 30.42 859 25.37 -7.5 18.5 67 -12.6 9.4
10:40 1030 30.42 859 25.37 -7.4 18.7 66 -12.6 9.3
10:45 1030 30.42 859 25.37 -7.4 18.7 67 -12.5 9.6
10:50 1030 30.42 859 25.37 -7.5 18.5 65 -13 8.5
10:55 1030 30.42 859 25.37 -7.5 18.6 65 -12.9 8.7
11:00 1030 30.42 859 25.37 -7.4 18.6 64 -13.1 8.5
11:05 1030 30.42 859 25.37 -7.3 18.9 63 -13.2 8.2
11:10 1030 30.42 859 25.37 -7.3 18.8 64 -13.1 8.5
11:15 1030 30.42 859 25.37 -7.5 18.5 65 -13 8.6
11:20 1030 30.42 859 25.37 -7.3 18.9 63 -13.2 8.2
11:25 1030 30.42 859 25.37 -7.3 18.9 63 -13.1 8.4
11:30 1030 30.42 859 25.37 -7.2 19.1 63 -13 8.7
11:35 1030 30.42 860 25.4 -7 19.4 60 -13.5 7.6
11:40 1030 30.42 860 25.4 -6.9 19.5 61 -13.3 8
11:45 1030 30.42 860 25.4 -7.3 18.9 62 -13.4 7.9
11:50 1030 30.42 860 25.4 -6.7 20 59 -13.5 7.8
11:55 1030 30.42 860 25.4 -6.4 20.5 58 -13.4 8
12:00 1030 30.42 860 25.4 -6.3 20.7 59 -13 8.6
12:05 1031 30.45 860 25.4 -6.2 20.8 58 -13.2 8.3
12:10 1031 30.45 860 25.4 -6.4 20.5 60 -13 8.6
12:15 1031 30.45 860 25.4 -6.7 20 62 -12.9 8.8
12:20 1031 30.45 860 25.4 -6.1 21.1 58 -13 8.6
12:25 1030 30.42 860 25.4 -5.8 21.6 57 -13.1 8.4
12:30 1030 30.42 860 25.4 -6.1 20.9 60 -12.8 9
12:35 1030 30.42 860 25.4 -5.8 21.5 55 -13.5 7.7
12:40 1030 30.42 860 25.4 -6.2 20.8 57 -13.5 7.7
12:45 1030 30.42 860 25.4 -6.6 20.2 57 -13.8 7.1
12:50 1030 30.42 860 25.4 -6.5 20.2 60 -13.2 8.3
12:55 1030 30.42 860 25.4 -6 21.2 56 -13.4 7.9
13:00 1030 30.42 859 25.37 -5.5 22.1 55 -13.3 8.1
13:05 1030 30.42 859 25.37 -5.7 21.8 56 -13.1 8.4
13:10 1030 30.42 859 25.37 -5.5 22.2 56 -12.8 8.9
13:15 1030 30.42 859 25.37 -5.1 22.7 55 -12.9 8.9
13:20 1030 30.42 859 25.37 -5.1 22.9 55 -12.8 9
13:25 1030 30.42 859 25.37 -5.4 22.2 55 -13 8.5
13:30 1030 30.42 859 25.37 -5.4 22.3 56 -12.9 8.8
13:35 1030 30.42 859 25.37 -4.8 23.4 53 -12.9 8.8
13:40 1030 30.42 859 25.37 -4.2 24.4 52 -12.6 9.3
13:45 1030 30.42 859 25.37 -4.6 23.8 56 -12.2 10.1
13:50 1030 30.42 859 25.37 -4.8 23.4 55 -12.6 9.4
13:55 1030 30.42 859 25.37 -4.3 24.2 52 -12.9 8.8
14:00 1030 30.42 859 25.37 -3.7 25.4 50 -12.8 9
14:05 1030 30.42 859 25.37 -3.8 25.2 54 -11.8 10.7
14:10 1030 30.42 859 25.37 -4.1 24.6 52 -12.5 9.5
14:15 1030 30.42 859 25.37 -4.4 24 53 -12.7 9.2
14:20 1030 30.42 859 25.37 -5.3 22.4 54 -13.3 8.1
14:25 1030 30.42 859 25.37 -4.8 23.4 50 -13.6 7.6
14:30 1030 30.42 859 25.37 -3.4 25.8 46 -13.6 7.5
14:35 1030 30.42 859 25.37 -3.6 25.6 48 -13 8.6
14:40 1030 30.42 859 25.37 -3.8 25.2 47 -13.5 7.7
14:45 1030 30.42 859 25.37 -3.7 25.4 49 -13 8.6
14:50 1030 30.42 859 25.37 -3.6 25.5 49 -12.9 8.7
14:55 1030 30.42 859 25.37 -4.2 24.4 51 -13 8.7
15:00 1030 30.42 859 25.37 -4.4 24.1 51 -13.1 8.4
15:05 1030 30.42 859 25.37 -4 24.8 49 -13.1 8.3
15:10 1030 30.42 859 25.37 -4.5 23.8 52 -12.9 8.7
15:15 1030 30.42 859 25.37 -4 24.8 48 -13.4 7.8
15:20 1030 30.42 859 25.37 -3.6 25.5 48 -13.1 8.4
15:25 1030 30.42 859 25.37 -4 24.8 46 -13.9 7
15:30 1030 30.42 859 25.37 -3.6 25.6 46 -13.6 7.4
15:35 1030 30.42 859 25.37 -3.6 25.5 45 -13.8 7.1
15:40 1030 30.42 859 25.37 -3.4 25.9 50 -12.3 9.8
15:45 1030 30.42 859 25.37 -4.6 23.7 57 -12 10.4
15:50 1030 30.42 859 25.37 -5.4 22.3 55 -13 8.7
15:55 1030 30.42 859 25.37 -5.4 22.3 57 -12.7 9.1
16:00 1030 30.42 859 25.37 -4.9 23.2 54 -12.9 8.8
16:05 1030 30.42 859 25.37 -4.9 23.1 54 -12.8 9
16:10 1030 30.42 859 25.37 -5.2 22.7 54 -13 8.6
16:15 1030 30.42 859 25.37 -5.1 22.8 54 -13 8.7
16:20 1030 30.42 859 25.37 -4.9 23.1 54 -12.9 8.7
16:25 1030 30.42 859 25.37 -5.2 22.6 52 -13.6 7.5
16:30 1030 30.42 859 25.37 -5.3 22.5 51 -14 6.9
16:35 1030 30.42 859 25.37 -4.9 23.2 49 -14 6.8
16:40 1030 30.42 859 25.37 -5 23 51 -13.8 7.2
16:45 1030 30.42 859 25.37 -5.2 22.7 50 -14.2 6.5
16:50 1030 30.42 859 25.37 -5.1 22.9 50 -14 6.7
16:55 1030 30.42 859 25.37 -4.9 23.1 49 -14.2 6.5
17:00 1030 30.42 859 25.37 -4.9 23.2 49 -14.1 6.6
17:05 1030 30.42 859 25.37 -5 23.1 49 -14 6.8
17:10 1030 30.42 859 25.37 -5.2 22.7 51 -13.8 7.1
17:15 1030 30.42 859 25.37 -5.5 22.1 52 -13.8 7.2
17:20 1030 30.42 859 25.37 -5.6 21.9 52 -13.9 6.9
17:25 1030 30.42 859 25.37 -5.8 21.6 54 -13.7 7.3
17:30 1030 30.42 859 25.37 -6 21.2 54 -13.8 7.1
17:35 1030 30.42 859 25.37 -6.2 20.9 56 -13.6 7.5
17:40 1030 30.42 859 25.37 -7 19.3 60 -13.6 7.6
17:45 1030 30.42 860 25.4 -7.6 18.3 62 -13.8 7.2
17:50 1030 30.42 859 25.37 -7.8 18 62 -13.8 7.2
17:55 1030 30.42 859 25.37 -7.8 18 63 -13.7 7.3
18:00 1030 30.42 859 25.37 -8 17.6 64 -13.8 7.2
18:05 1030 30.42 859 25.37 -8.7 16.4 65 -14.1 6.7
18:10 1030 30.42 860 25.4 -8.9 15.9 66 -14.2 6.5
18:15 1030 30.42 860 25.4 -9 15.9 67 -14.1 6.7
18:20 1030 30.42 860 25.4 -8.9 15.9 67 -14 6.7
18:25 1030 30.42 860 25.4 -9.2 15.4 68 -14.1 6.6
18:30 1030 30.42 860 25.4 -9.2 15.5 68 -14.1 6.6
18:35 1030 30.42 860 25.4 -9.3 15.3 67 -14.3 6.3
18:40 1030 30.42 860 25.4 -9.6 14.7 69 -14.3 6.3
18:45 1030 30.42 860 25.4 -9.7 14.6 69 -14.3 6.2
18:50 1030 30.42 860 25.4 -9.9 14.1 70 -14.5 5.9
18:55 1030 30.42 860 25.4 -10.2 13.7 71 -14.5 6
19:00 1030 30.42 859 25.37 -10.3 13.5 70 -14.7 5.5
19:05 1030 30.42 859 25.37 -10.5 13.1 72 -14.5 5.8
19:10 1030 30.42 859 25.37 -10.6 13 73 -14.5 5.9
19:15 1030 30.42 859 25.37 -10.5 13.1 74 -14.3 6.2
19:20 1030 30.42 859 25.37 -10.4 13.3 75 -14 6.8
19:25 1030 30.42 859 25.37 -10.3 13.4 72 -14.5 5.8
19:30 1030 30.42 859 25.37 -10.8 12.5 74 -14.6 5.7
19:35 1030 30.42 859 25.37 -11 12.2 75 -14.6 5.7
19:40 1030 30.42 859 25.37 -11.1 11.9 73 -15.1 4.8
19:45 1030 30.42 859 25.37 -11.1 12.1 73 -15.1 4.8
19:50 1030 30.42 859 25.37 -11.3 11.6 75 -14.9 5.1
19:55 1030 30.42 859 25.37 -11.2 11.8 72 -15.3 4.4
20:00 1030 30.42 859 25.37 -11.3 11.6 73 -15.2 4.6
20:05 1030 30.42 859 25.37 -11.3 11.7 73 -15.3 4.5
20:10 1030 30.42 859 25.37 -11.3 11.7 73 -15.2 4.7
20:15 1030 30.42 859 25.37 -11.3 11.6 74 -15.1 4.8
20:20 1030 30.42 859 25.37 -11.2 11.8 74 -15 4.9
20:25 1030 30.42 860 25.4 -11 12.2 72 -15 4.9
20:30 1030 30.42 860 25.4 -10.7 12.8 73 -14.7 5.5
20:35 1030 30.42 860 25.4 -10.4 13.2 70 -14.9 5.2
20:40 1030 30.42 860 25.4 -10.5 13.1 70 -15 5.1
20:45 1030 30.42 860 25.4 -10.6 12.9 71 -14.8 5.3
20:50 1030 30.42 860 25.4 -10.6 12.9 70 -15 5
20:55 1030 30.42 860 25.4 -10.6 12.9 71 -14.9 5.1
21:00 1030 30.42 860 25.4 -10.7 12.8 71 -15 4.9
21:05 1030 30.42 860 25.4 -10.9 12.3 72 -15.1 4.9
21:10 1030 30.42 860 25.4 -11.2 11.8 72 -15.3 4.5
21:15 1030 30.42 860 25.4 -11.4 11.5 72 -15.5 4.1
21:20 1030 30.42 860 25.4 -11.4 11.5 72 -15.5 4.2
21:25 1030 30.42 860 25.4 -11.3 11.7 73 -15.2 4.6
21:30 1030 30.42 859 25.37 -11.2 11.8 72 -15.4 4.3
21:35 1030 30.42 859 25.37 -11.2 11.9 72 -15.2 4.6
21:40 1030 30.42 859 25.37 -11.1 12 72 -15.3 4.5
21:45 1030 30.42 859 25.37 -11 12.2 71 -15.3 4.4
21:50 1030 30.42 859 25.37 -11 12.3 71 -15.3 4.5
21:55 1030 30.42 859 25.37 -11 12.2 71 -15.3 4.5
22:00 1030 30.42 859 25.37 -10.9 12.4 70 -15.4 4.4
22:05 1030 30.42 859 25.37 -10.8 12.6 69 -15.4 4.3
22:10 1030 30.42 859 25.37 -10.8 12.6 69 -15.4 4.3
22:15 1030 30.42 859 25.37 -10.9 12.5 70 -15.4 4.4
22:20 1030 30.42 859 25.37 -11 12.2 70 -15.5 4.1
22:25 1030 30.42 859 25.37 -11.3 11.6 72 -15.4 4.2
22:30 1030 30.42 859 25.37 -11.5 11.3 72 -15.6 3.9
22:35 1030 30.42 859 25.37 -11.5 11.3 72 -15.6 4
22:40 1030 30.42 859 25.37 -11.4 11.5 71 -15.6 3.9
22:45 1030 30.42 859 25.37 -11.5 11.4 72 -15.6 3.9
22:50 1030 30.42 859 25.37 -11.4 11.6 71 -15.6 3.8
22:55 1030 30.42 859 25.37 -11.3 11.8 70 -15.6 3.9
23:00 1030 30.42 859 25.37 -11.3 11.7 71 -15.6 4
23:05 1030 30.42 859 25.37 -11.3 11.6 71 -15.7 3.8
23:10 1030 30.42 859 25.37 -11.4 11.4 70 -15.8 3.5
23:15 1030 30.42 859 25.37 -11.8 10.8 72 -15.8 3.5
23:20 1030 30.42 859 25.37 -11.9 10.5 73 -15.8 3.5
23:25 1030 30.42 859 25.37 -12 10.4 74 -15.8 3.5
23:30 1030 30.42 859 25.37 -12 10.4 74 -15.8 3.5
23:35 1030 30.42 859 25.37 -12 10.4 74 -15.7 3.8
23:40 1030 30.42 859 25.37 -12 10.4 74 -15.8 3.6
23:45 1030 30.42 859 25.37 -12.2 10 74 -16 3.3
23:50 1030 30.42 859 25.37 -12.8 9 76 -16.1 3
23:55 1030 30.42 859 25.37 -13.1 8.4 76 -16.5 2.3
24:00 1030 30.42 859 25.37 -13.4 7.9 77 -16.6 2.1